Cincinnati, OH

8:45 AM EDT on August 30, 2015 (GMT -0400)
Newport Aquarium | | Change Station
CLOSE
Current Station
Personal Weather Station
Location: Newport, KY
Elevation: 499 ft
Nearby Weather Stations

Elev 499 ft 39.09 °N, 84.50 °W | Updated 50 seconds ago

Partly Cloudy
Partly Cloudy
69.4 °F
Feels Like 69.4 °F
N
0.0
Wind Variable Wind from East
Gusts 3.0 mph

Today
High -- | Low -- °F
--% Chance of Precip.
Yesterday
High -- | Low -- °F
Precip. -- in
7:04 AM 8:11 PM
Full, 99% visible
Pressure 30.12 in
Visibility 3.0 miles
Clouds Scattered Clouds 200 ft
Overcast 7500 ft
Dew Point 65 °F
Humidity 87%
Rainfall 0.00 in
Snow Depth Not available.
UV 0 out of 12
Pollen 10.10 out of 12
Air Quality Not available.
Flu Activity Not available.
SPECI KLUK 301218Z COR 00000KT 3SM R21L/2800VP6000FT BR SCT002 OVC075 19/19 A3012 RMK AO2 T01890189
Pressure 30.12 in
Visibility 3.0 miles
Clouds Scattered Clouds 200 ft
Overcast 7500 ft
Dew Point 65 °F
Humidity 87%
Rainfall 0.00 in
Snow Depth Not available.
UV 0 out of 12
Pollen 10.10 out of 12
Air Quality Not available.
Flu Activity Not available.
SPECI KLUK 301218Z COR 00000KT 3SM R21L/2800VP6000FT BR SCT002 OVC075 19/19 A3012 RMK AO2 T01890189

10-Day Weather Forecast

×

Almanac

Astronomy

Aug. 30, 2015 Rise Set
Actual Time
Civil Twilight
Nautical Twilight
Astronomical Twilight
Moon
Length of Visible Light
Length of Day
Tomorrow will be .
, % of the Moon is Illuminated

Today's Extremes

State Highs State Lows

Community

WunderPhotos

Upload Photos

1,850,940 photos uploaded!

WunderBlogs® & News

Nearby

Air Quality

  Air Quality AQ Index Pollutant
Not available.

Snow Depth

Station Depth Elevation

Earthquake Activity

City Distance Mag. Time & Date
Minimum magnitude displayed is 2.5.

Coastal Water Temperatures

Place Temperature

Stations

Nearby Weather Stations

Station Location Temp. Windchill Dew Point Humidity Wind Precip. Elev Updated Type